sensor_id;sensor_type;location;lat;lon;timestamp;pressure;altitude;pressure_sealevel;temperature;humidity
54503;BME280;40411;50.090;21.954;2023-10-31T00:01:21;56435.34;;;22.68;47.97
54503;BME280;40411;50.090;21.954;2023-10-31T00:03:47;56662.84;;;22.48;48.42
54503;BME280;40411;50.090;21.954;2023-10-31T00:06:13;56452.03;;;22.78;47.49
54503;BME280;40411;50.090;21.954;2023-10-31T00:08:39;57084.75;;;22.17;48.75
54503;BME280;40411;50.090;21.954;2023-10-31T00:11:05;56797.97;;;22.45;48.13
54503;BME280;40411;50.090;21.954;2023-10-31T00:13:31;57423.22;;;21.91;49.16
54503;BME280;40411;50.090;21.954;2023-10-31T00:15:57;57539.19;;;21.79;49.39
54503;BME280;40411;50.090;21.954;2023-10-31T00:18:22;56372.63;;;22.92;46.87
54503;BME280;40411;50.090;21.954;2023-10-31T00:20:48;56743.09;;;22.60;47.19
54503;BME280;40411;50.090;21.954;2023-10-31T00:23:15;56469.19;;;22.82;46.95
54503;BME280;40411;50.090;21.954;2023-10-31T00:25:40;56098.03;;;23.13;46.06
54503;BME280;40411;50.090;21.954;2023-10-31T00:28:06;56058.38;;;23.16;45.79
54503;BME280;40411;50.090;21.954;2023-10-31T00:30:32;56293.41;;;22.92;46.82
54503;BME280;40411;50.090;21.954;2023-10-31T00:32:58;56292.22;;;22.94;46.77
54503;BME280;40411;50.090;21.954;2023-10-31T00:35:23;56841.50;;;22.51;47.60
54503;BME280;40411;50.090;21.954;2023-10-31T00:37:49;56485.34;;;22.73;47.26
54503;BME280;40411;50.090;21.954;2023-10-31T00:40:15;56462.69;;;22.89;46.54
54503;BME280;40411;50.090;21.954;2023-10-31T00:42:42;55855.88;;;23.27;46.20
54503;BME280;40411;50.090;21.954;2023-10-31T00:45:08;55830.22;;;23.34;45.27
54503;BME280;40411;50.090;21.954;2023-10-31T00:47:34;55377.16;;;23.70;44.44
54503;BME280;40411;50.090;21.954;2023-10-31T00:50:01;56119.28;;;23.13;46.06
54503;BME280;40411;50.090;21.954;2023-10-31T00:52:27;57118.38;;;22.22;48.30
54503;BME280;40411;50.090;21.954;2023-10-31T00:54:53;57460.16;;;21.94;48.91
54503;BME280;40411;50.090;21.954;2023-10-31T00:57:18;56552.91;;;22.72;47.47
54503;BME280;40411;50.090;21.954;2023-10-31T00:59:44;55745.38;;;23.37;45.82
54503;BME280;40411;50.090;21.954;2023-10-31T01:02:10;56478.38;;;22.86;46.82
54503;BME280;40411;50.090;21.954;2023-10-31T01:04:36;56397.25;;;22.90;46.64
54503;BME280;40411;50.090;21.954;2023-10-31T01:07:03;56463.59;;;22.73;47.55
54503;BME280;40411;50.090;21.954;2023-10-31T01:09:28;56339.09;;;22.99;46.35
54503;BME280;40411;50.090;21.954;2023-10-31T01:11:54;56240.56;;;23.07;46.26
54503;BME280;40411;50.090;21.954;2023-10-31T01:14:20;56397.50;;;22.93;46.56
54503;BME280;40411;50.090;21.954;2023-10-31T01:16:46;57101.25;;;22.37;47.49
54503;BME280;40411;50.090;21.954;2023-10-31T01:19:13;56912.84;;;22.43;47.67
54503;BME280;40411;50.090;21.954;2023-10-31T01:21:39;56550.06;;;22.80;46.79
54503;BME280;40411;50.090;21.954;2023-10-31T01:24:05;56416.81;;;22.85;46.75
54503;BME280;40411;50.090;21.954;2023-10-31T04:16:18;59351.28;;;21.69;39.47
54503;BME280;40411;50.090;21.954;2023-10-31T04:18:44;59002.09;;;22.02;39.18
54503;BME280;40411;50.090;21.954;2023-10-31T04:21:10;59502.44;;;21.58;39.53
54503;BME280;40411;50.090;21.954;2023-10-31T04:23:36;59355.50;;;21.57;40.15
54503;BME280;40411;50.090;21.954;2023-10-31T04:26:02;58001.22;;;23.03;37.71
54503;BME280;40411;50.090;21.954;2023-10-31T04:28:28;59260.56;;;21.68;40.11
54503;BME280;40411;50.090;21.954;2023-10-31T04:30:53;59585.38;;;21.40;39.77
54503;BME280;40411;50.090;21.954;2023-10-31T04:33:19;59651.88;;;21.35;40.00
54503;BME280;40411;50.090;21.954;2023-10-31T04:35:45;59438.88;;;21.55;40.10
54503;BME280;40411;50.090;21.954;2023-10-31T04:38:11;59564.25;;;21.37;40.07
54503;BME280;40411;50.090;21.954;2023-10-31T04:40:37;59512.13;;;21.54;39.59
54503;BME280;40411;50.090;21.954;2023-10-31T04:43:03;59641.59;;;21.40;39.73
54503;BME280;40411;50.090;21.954;2023-10-31T04:45:28;60346.53;;;20.40;41.55
54503;BME280;40411;50.090;21.954;2023-10-31T04:47:55;59737.19;;;21.22;40.38
54503;BME280;40411;50.090;21.954;2023-10-31T04:50:20;59427.75;;;21.55;40.17
54503;BME280;40411;50.090;21.954;2023-10-31T04:52:46;59291.94;;;21.78;39.30
54503;BME280;40411;50.090;21.954;2023-10-31T04:55:12;59642.13;;;21.25;40.45
54503;BME280;40411;50.090;21.954;2023-10-31T04:57:38;59656.84;;;21.29;40.39
54503;BME280;40411;50.090;21.954;2023-10-31T05:00:05;59438.38;;;21.55;39.87
54503;BME280;40411;50.090;21.954;2023-10-31T05:02:34;59325.47;;;21.64;39.67
54503;BME280;40411;50.090;21.954;2023-10-31T05:04:59;59132.25;;;21.89;39.44
54503;BME280;40411;50.090;21.954;2023-10-31T05:07:25;59340.78;;;21.66;39.75
54503;BME280;40411;50.090;21.954;2023-10-31T05:09:51;59070.34;;;21.96;39.14
54503;BME280;40411;50.090;21.954;2023-10-31T05:12:17;58862.00;;;22.21;38.85
54503;BME280;40411;50.090;21.954;2023-10-31T05:14:43;58892.34;;;22.09;39.05
54503;BME280;40411;50.090;21.954;2023-10-31T05:17:09;58654.72;;;22.35;38.84
54503;BME280;40411;50.090;21.954;2023-10-31T05:19:34;58536.44;;;22.68;37.46
54503;BME280;40411;50.090;21.954;2023-10-31T05:22:00;58689.72;;;22.35;38.39
54503;BME280;40411;50.090;21.954;2023-10-31T05:24:26;58647.53;;;22.49;37.48
54503;BME280;40411;50.090;21.954;2023-10-31T05:26:52;59044.03;;;21.91;39.41
54503;BME280;40411;50.090;21.954;2023-10-31T05:29:18;59502.22;;;21.50;39.76
54503;BME280;40411;50.090;21.954;2023-10-31T05:31:44;59374.19;;;21.54;39.83
54503;BME280;40411;50.090;21.954;2023-10-31T05:34:10;58981.84;;;21.92;39.68
54503;BME280;40411;50.090;21.954;2023-10-31T05:36:36;58678.47;;;22.37;38.27
54503;BME280;40411;50.090;21.954;2023-10-31T05:39:01;59275.41;;;21.80;38.67
54503;BME280;40411;50.090;21.954;2023-10-31T05:41:27;58360.75;;;22.65;38.17
54503;BME280;40411;50.090;21.954;2023-10-31T05:43:53;58637.84;;;22.42;38.61
54503;BME280;40411;50.090;21.954;2023-10-31T05:46:19;59401.00;;;21.60;39.09
54503;BME280;40411;50.090;21.954;2023-10-31T05:48:45;58210.34;;;22.83;37.37
54503;BME280;40411;50.090;21.954;2023-10-31T05:51:16;58963.66;;;21.95;39.02
54503;BME280;40411;50.090;21.954;2023-10-31T05:53:44;59046.06;;;21.93;38.91
54503;BME280;40411;50.090;21.954;2023-10-31T05:56:15;59199.22;;;21.86;38.61
54503;BME280;40411;50.090;21.954;2023-10-31T05:58:41;58896.66;;;22.08;38.74
54503;BME280;40411;50.090;21.954;2023-10-31T06:01:07;58562.97;;;22.41;38.51
54503;BME280;40411;50.090;21.954;2023-10-31T06:03:34;59176.22;;;21.79;39.12
54503;BME280;40411;50.090;21.954;2023-10-31T06:06:00;59548.66;;;21.43;39.63
54503;BME280;40411;50.090;21.954;2023-10-31T06:08:26;59392.28;;;21.40;40.25
54503;BME280;40411;50.090;21.954;2023-10-31T06:10:55;59601.34;;;21.24;40.51
54503;BME280;40411;50.090;21.954;2023-10-31T06:13:22;59637.66;;;21.18;40.34
54503;BME280;40411;50.090;21.954;2023-10-31T06:15:48;59235.28;;;21.64;39.48
54503;BME280;40411;50.090;21.954;2023-10-31T06:18:13;59334.56;;;21.62;39.30
54503;BME280;40411;50.090;21.954;2023-10-31T06:20:39;59446.00;;;21.36;39.99
54503;BME280;40411;50.090;21.954;2023-10-31T06:23:05;59329.81;;;21.50;40.09
54503;BME280;40411;50.090;21.954;2023-10-31T06:25:31;58758.81;;;22.24;38.31
54503;BME280;40411;50.090;21.954;2023-10-31T06:27:57;58466.47;;;22.57;37.83
54503;BME280;40411;50.090;21.954;2023-10-31T06:30:23;60278.25;;;20.38;41.25
54503;BME280;40411;50.090;21.954;2023-10-31T06:32:52;59525.50;;;21.38;39.82
54503;BME280;40411;50.090;21.954;2023-10-31T06:35:18;59356.13;;;21.55;39.53
54503;BME280;40411;50.090;21.954;2023-10-31T06:37:43;60295.75;;;20.37;41.59
54503;BME280;40411;50.090;21.954;2023-10-31T06:40:10;58338.81;;;22.67;37.70
54503;BME280;40411;50.090;21.954;2023-10-31T06:42:36;59478.75;;;21.53;39.17
54503;BME280;40411;50.090;21.954;2023-10-31T06:45:03;59329.66;;;21.66;39.12
54503;BME280;40411;50.090;21.954;2023-10-31T06:47:30;58526.47;;;22.66;37.46
54503;BME280;40411;50.090;21.954;2023-10-31T06:49:56;58300.31;;;22.71;37.69
54503;BME280;40411;50.090;21.954;2023-10-31T06:52:22;58001.88;;;23.09;36.99
54503;BME280;40411;50.090;21.954;2023-10-31T06:54:48;58974.53;;;22.01;38.70
54503;BME280;40411;50.090;21.954;2023-10-31T06:57:13;58825.06;;;22.27;37.96
54503;BME280;40411;50.090;21.954;2023-10-31T06:59:41;58221.31;;;22.86;37.48
54503;BME280;40411;50.090;21.954;2023-10-31T07:02:07;58090.94;;;22.96;37.25
54503;BME280;40411;50.090;21.954;2023-10-31T07:04:33;57395.31;;;23.63;36.06
54503;BME280;40411;50.090;21.954;2023-10-31T07:06:58;58710.47;;;22.35;37.89
54503;BME280;40411;50.090;21.954;2023-10-31T07:09:25;59697.31;;;21.25;39.47
54503;BME280;40411;50.090;21.954;2023-10-31T07:11:51;59885.84;;;20.85;40.78
54503;BME280;40411;50.090;21.954;2023-10-31T07:14:17;59600.34;;;21.23;40.25
54503;BME280;40411;50.090;21.954;2023-10-31T07:16:43;59507.00;;;21.23;40.78
54503;BME280;40411;50.090;21.954;2023-10-31T07:19:10;59902.34;;;20.83;41.29
54503;BME280;40411;50.090;21.954;2023-10-31T07:21:36;59731.28;;;20.95;41.32
54503;BME280;40411;50.090;21.954;2023-10-31T07:24:02;60052.09;;;20.56;42.01
54503;BME280;40411;50.090;21.954;2023-10-31T07:26:28;59031.16;;;21.83;39.66
54503;BME280;40411;50.090;21.954;2023-10-31T07:28:54;59795.16;;;20.87;41.56
54503;BME280;40411;50.090;21.954;2023-10-31T07:31:20;59815.31;;;20.86;41.33
54503;BME280;40411;50.090;21.954;2023-10-31T07:33:46;59870.03;;;20.83;41.01
54503;BME280;40411;50.090;21.954;2023-10-31T07:36:12;59699.00;;;21.08;41.10
54503;BME280;40411;50.090;21.954;2023-10-31T07:38:38;59032.66;;;21.84;39.76
54503;BME280;40411;50.090;21.954;2023-10-31T07:41:04;59426.25;;;21.27;40.83
54503;BME280;40411;50.090;21.954;2023-10-31T07:43:30;58962.03;;;21.85;39.90
54503;BME280;40411;50.090;21.954;2023-10-31T07:45:56;58100.91;;;22.82;38.15
54503;BME280;40411;50.090;21.954;2023-10-31T07:48:22;58150.88;;;22.82;37.66
54503;BME280;40411;50.090;21.954;2023-10-31T07:50:48;58225.25;;;22.65;37.88
54503;BME280;40411;50.090;21.954;2023-10-31T07:53:14;58247.38;;;22.77;37.31
54503;BME280;40411;50.090;21.954;2023-10-31T07:55:40;58172.66;;;22.82;37.37
54503;BME280;40411;50.090;21.954;2023-10-31T07:58:06;58241.56;;;22.77;37.09
54503;BME280;40411;50.090;21.954;2023-10-31T08:00:31;57998.41;;;22.89;37.48
54503;BME280;40411;50.090;21.954;2023-10-31T08:03:00;57868.47;;;23.08;37.17
54503;BME280;40411;50.090;21.954;2023-10-31T08:05:25;56640.13;;;24.08;36.22
54503;BME280;40411;50.090;21.954;2023-10-31T08:07:52;58189.72;;;22.72;37.72
54503;BME280;40411;50.090;21.954;2023-10-31T08:10:18;58133.94;;;22.81;37.78
54503;BME280;40411;50.090;21.954;2023-10-31T08:12:44;58084.13;;;22.79;37.86
54503;BME280;40411;50.090;21.954;2023-10-31T08:15:09;57751.00;;;23.08;37.61
54503;BME280;40411;50.090;21.954;2023-10-31T08:17:35;57718.69;;;23.21;37.22
54503;BME280;40411;50.090;21.954;2023-10-31T08:20:02;57660.75;;;23.13;37.40
54503;BME280;40411;50.090;21.954;2023-10-31T08:22:31;57778.59;;;23.09;37.22
54503;BME280;40411;50.090;21.954;2023-10-31T08:24:56;56971.38;;;23.82;36.41
54503;BME280;40411;50.090;21.954;2023-10-31T08:27:22;57403.41;;;23.41;37.06
54503;BME280;40411;50.090;21.954;2023-10-31T08:29:48;56507.06;;;24.20;35.82
54503;BME280;40411;50.090;21.954;2023-10-31T08:32:14;57706.00;;;23.05;37.89
54503;BME280;40411;50.090;21.954;2023-10-31T08:34:40;57065.28;;;23.66;37.08
54503;BME280;40411;50.090;21.954;2023-10-31T08:37:05;57358.13;;;23.36;37.59
54503;BME280;40411;50.090;21.954;2023-10-31T08:39:31;59241.13;;;21.27;41.36
54503;BME280;40411;50.090;21.954;2023-10-31T08:41:57;59308.44;;;21.28;41.45
54503;BME280;40411;50.090;21.954;2023-10-31T08:44:23;58591.81;;;22.00;40.51
54503;BME280;40411;50.090;21.954;2023-10-31T08:46:49;58327.88;;;22.29;40.11
54503;BME280;40411;50.090;21.954;2023-10-31T08:49:16;59384.97;;;21.12;41.95
54503;BME280;40411;50.090;21.954;2023-10-31T08:51:42;59176.38;;;21.29;42.32
54503;BME280;40411;50.090;21.954;2023-10-31T08:54:08;59445.19;;;21.03;42.20
54503;BME280;40411;50.090;21.954;2023-10-31T08:56:37;58087.09;;;22.33;41.15
54503;BME280;40411;50.090;21.954;2023-10-31T08:59:02;58446.38;;;22.09;40.17
54503;BME280;40411;50.090;21.954;2023-10-31T09:01:29;58205.75;;;22.29;40.74
54503;BME280;40411;50.090;21.954;2023-10-31T09:03:55;59008.84;;;21.50;41.62
54503;BME280;40411;50.090;21.954;2023-10-31T09:06:21;58854.03;;;21.49;42.92
54503;BME280;40411;50.090;21.954;2023-10-31T09:08:46;58223.16;;;22.30;41.14
54503;BME280;40411;50.090;21.954;2023-10-31T09:11:12;57885.38;;;22.71;39.70
54503;BME280;40411;50.090;21.954;2023-10-31T09:13:38;57466.69;;;23.00;40.25
54503;BME280;40411;50.090;21.954;2023-10-31T09:16:04;58104.38;;;22.45;40.23
54503;BME280;40411;50.090;21.954;2023-10-31T09:18:30;58656.38;;;21.74;42.64
54503;BME280;40411;50.090;21.954;2023-10-31T09:20:56;59414.94;;;20.91;43.45
54503;BME280;40411;50.090;21.954;2023-10-31T09:23:21;59447.97;;;20.87;43.48
54503;BME280;40411;50.090;21.954;2023-10-31T09:25:47;58910.34;;;21.47;42.79
54503;BME280;40411;50.090;21.954;2023-10-31T09:28:13;58971.28;;;21.25;43.79
54503;BME280;40411;50.090;21.954;2023-10-31T09:30:39;58818.63;;;21.56;42.52
54503;BME280;40411;50.090;21.954;2023-10-31T09:33:05;58394.19;;;21.94;42.12
54503;BME280;40411;50.090;21.954;2023-10-31T09:35:31;58063.03;;;22.35;41.36
54503;BME280;40411;50.090;21.954;2023-10-31T09:37:56;57706.16;;;22.81;40.43
54503;BME280;40411;50.090;21.954;2023-10-31T09:40:23;57345.63;;;23.12;39.72
54503;BME280;40411;50.090;21.954;2023-10-31T09:42:49;56826.53;;;23.58;38.56
54503;BME280;40411;50.090;21.954;2023-10-31T09:45:15;56902.59;;;23.46;38.61
54503;BME280;40411;50.090;21.954;2023-10-31T09:47:41;56979.53;;;23.29;39.35
54503;BME280;40411;50.090;21.954;2023-10-31T09:50:09;56454.94;;;23.68;38.98
54503;BME280;40411;50.090;21.954;2023-10-31T09:52:38;56151.91;;;24.04;38.09
54503;BME280;40411;50.090;21.954;2023-10-31T09:55:05;55955.69;;;24.08;38.67
54503;BME280;40411;50.090;21.954;2023-10-31T09:57:31;56892.56;;;23.33;39.72
54503;BME280;40411;50.090;21.954;2023-10-31T09:59:57;56531.34;;;23.58;39.45
54503;BME280;40411;50.090;21.954;2023-10-31T10:02:23;56308.69;;;23.79;39.18
54503;BME280;40411;50.090;21.954;2023-10-31T10:04:49;55949.69;;;24.04;38.93
54503;BME280;40411;50.090;21.954;2023-10-31T10:07:19;55984.03;;;24.01;38.84
54503;BME280;40411;50.090;21.954;2023-10-31T10:09:46;55846.06;;;24.13;38.53
54503;BME280;40411;50.090;21.954;2023-10-31T10:12:13;56284.50;;;23.81;39.09
54503;BME280;40411;50.090;21.954;2023-10-31T10:14:40;56642.19;;;23.38;40.22
54503;BME280;40411;50.090;21.954;2023-10-31T10:17:21;55203.19;;;24.46;38.71
54503;BME280;40411;50.090;21.954;2023-10-31T10:19:47;55909.09;;;23.95;39.36
54503;BME280;40411;50.090;21.954;2023-10-31T10:22:13;55854.41;;;23.99;39.50
54503;BME280;40411;50.090;21.954;2023-10-31T10:24:41;56157.81;;;23.71;40.31
54503;BME280;40411;50.090;21.954;2023-10-31T10:27:08;55801.94;;;23.97;39.43
54503;BME280;40411;50.090;21.954;2023-10-31T10:29:34;55090.16;;;24.47;39.00
54503;BME280;40411;50.090;21.954;2023-10-31T10:32:00;55068.50;;;24.41;39.44
54503;BME280;40411;50.090;21.954;2023-10-31T10:34:26;55663.88;;;23.95;39.73
54503;BME280;40411;50.090;21.954;2023-10-31T10:36:53;54785.28;;;24.46;39.82
54503;BME280;40411;50.090;21.954;2023-10-31T10:39:21;54531.41;;;24.71;39.09
54503;BME280;40411;50.090;21.954;2023-10-31T10:41:54;54975.53;;;24.44;39.58
54503;BME280;40411;50.090;21.954;2023-10-31T10:44:32;55577.72;;;23.99;39.83
54503;BME280;40411;50.090;21.954;2023-10-31T10:47:01;55462.97;;;24.07;39.97
54503;BME280;40411;50.090;21.954;2023-10-31T10:49:28;54660.81;;;24.67;39.08
54503;BME280;40411;50.090;21.954;2023-10-31T10:55:00;54849.13;;;24.37;40.27
54503;BME280;40411;50.090;21.954;2023-10-31T11:00:03;55121.38;;;24.35;39.87
54503;BME280;40411;50.090;21.954;2023-10-31T11:02:30;54528.59;;;24.68;39.62
54503;BME280;40411;50.090;21.954;2023-10-31T11:04:58;55167.25;;;24.16;40.58
54503;BME280;40411;50.090;21.954;2023-10-31T11:07:25;54052.91;;;24.78;40.09
54503;BME280;40411;50.090;21.954;2023-10-31T11:09:54;53204.91;;;25.41;38.84
54503;BME280;40411;50.090;21.954;2023-10-31T11:12:22;54044.13;;;24.91;39.77
54503;BME280;40411;50.090;21.954;2023-10-31T11:14:49;54366.34;;;24.71;39.81
54503;BME280;40411;50.090;21.954;2023-10-31T11:17:27;54517.19;;;24.61;40.18
54503;BME280;40411;50.090;21.954;2023-10-31T11:19:55;54713.59;;;24.49;40.63
54503;BME280;40411;50.090;21.954;2023-10-31T11:22:21;55510.59;;;23.90;41.27
54503;BME280;40411;50.090;21.954;2023-10-31T11:24:51;53949.41;;;24.98;39.92
54503;BME280;40411;50.090;21.954;2023-10-31T11:27:18;54824.38;;;24.39;40.86
54503;BME280;40411;50.090;21.954;2023-10-31T11:29:44;54495.16;;;24.55;40.87
54503;BME280;40411;50.090;21.954;2023-10-31T11:32:11;54059.59;;;24.79;40.56
54503;BME280;40411;50.090;21.954;2023-10-31T11:34:39;54122.75;;;24.61;40.52
54503;BME280;40411;50.090;21.954;2023-10-31T11:37:24;53559.66;;;24.97;40.26
54503;BME280;40411;50.090;21.954;2023-10-31T11:42:40;53604.13;;;25.00;40.16
54503;BME280;40411;50.090;21.954;2023-10-31T11:45:10;53063.63;;;25.38;39.88
54503;BME280;40411;50.090;21.954;2023-10-31T11:47:49;54808.75;;;24.45;41.08
54503;BME280;40411;50.090;21.954;2023-10-31T11:50:16;54776.78;;;24.37;41.44
54503;BME280;40411;50.090;21.954;2023-10-31T11:52:43;55446.75;;;23.90;42.03
54503;BME280;40411;50.090;21.954;2023-10-31T11:55:12;54109.81;;;24.70;41.13
54503;BME280;40411;50.090;21.954;2023-10-31T11:57:39;54731.84;;;24.34;41.49
54503;BME280;40411;50.090;21.954;2023-10-31T12:00:06;54916.53;;;24.21;41.74
54503;BME280;40411;50.090;21.954;2023-10-31T12:02:38;54861.44;;;24.19;41.96
54503;BME280;40411;50.090;21.954;2023-10-31T12:07:46;53332.28;;;25.23;40.62
54503;BME280;40411;50.090;21.954;2023-10-31T12:10:13;55144.75;;;24.03;42.19
54503;BME280;40411;50.090;21.954;2023-10-31T12:12:38;54347.28;;;24.62;40.82
54503;BME280;40411;50.090;21.954;2023-10-31T12:15:06;55138.00;;;24.01;42.67
54503;BME280;40411;50.090;21.954;2023-10-31T12:17:33;54566.22;;;24.39;42.30
54503;BME280;40411;50.090;21.954;2023-10-31T12:20:06;54965.75;;;24.05;43.17
54503;BME280;40411;50.090;21.954;2023-10-31T12:22:33;54946.00;;;24.01;43.32
54503;BME280;40411;50.090;21.954;2023-10-31T12:25:03;53586.19;;;24.94;41.90
54503;BME280;40411;50.090;21.954;2023-10-31T12:27:49;54176.38;;;24.49;43.09
54503;BME280;40411;50.090;21.954;2023-10-31T12:30:17;54934.72;;;23.97;43.68
54503;BME280;40411;50.090;21.954;2023-10-31T12:32:44;54195.06;;;24.41;43.42
54503;BME280;40411;50.090;21.954;2023-10-31T12:35:13;54492.22;;;24.22;43.53
54503;BME280;40411;50.090;21.954;2023-10-31T12:37:44;54662.50;;;24.05;43.89
54503;BME280;40411;50.090;21.954;2023-10-31T12:40:11;54511.00;;;24.17;43.80
54503;BME280;40411;50.090;21.954;2023-10-31T12:42:37;54719.28;;;23.97;44.70
54503;BME280;40411;50.090;21.954;2023-10-31T12:45:05;55266.75;;;23.68;44.51
54503;BME280;40411;50.090;21.954;2023-10-31T12:47:31;52715.59;;;25.22;42.67
54503;BME280;40411;50.090;21.954;2023-10-31T12:52:49;54107.28;;;24.32;44.17
54503;BME280;40411;50.090;21.954;2023-10-31T12:55:18;55037.19;;;23.76;44.64
54503;BME280;40411;50.090;21.954;2023-10-31T12:57:44;56029.69;;;22.94;47.01
54503;BME280;40411;50.090;21.954;2023-10-31T13:00:13;55566.91;;;23.31;46.36
54503;BME280;40411;50.090;21.954;2023-10-31T13:02:39;56396.94;;;22.64;47.79
54503;BME280;40411;50.090;21.954;2023-10-31T13:05:13;54633.84;;;24.08;44.64
54503;BME280;40411;50.090;21.954;2023-10-31T13:07:40;55281.63;;;23.44;46.67
54503;BME280;40411;50.090;21.954;2023-10-31T13:10:13;54972.84;;;23.67;46.18
54503;BME280;40411;50.090;21.954;2023-10-31T13:12:38;54197.50;;;24.26;44.62
54503;BME280;40411;50.090;21.954;2023-10-31T13:15:05;54590.19;;;23.96;45.75
54503;BME280;40411;50.090;21.954;2023-10-31T13:17:33;55543.78;;;23.23;47.08
54503;BME280;40411;50.090;21.954;2023-10-31T13:20:04;55789.75;;;23.19;46.55
54503;BME280;40411;50.090;21.954;2023-10-31T13:22:31;55407.28;;;23.42;46.75
54503;BME280;40411;50.090;21.954;2023-10-31T13:24:57;55875.53;;;23.17;46.71
54503;BME280;40411;50.090;21.954;2023-10-31T13:27:23;55140.91;;;23.76;45.07
54503;BME280;40411;50.090;21.954;2023-10-31T13:29:49;55703.94;;;23.27;46.35
54503;BME280;40411;50.090;21.954;2023-10-31T13:32:16;55427.22;;;23.35;46.57
54503;BME280;40411;50.090;21.954;2023-10-31T13:34:42;55187.06;;;23.62;45.88
54503;BME280;40411;50.090;21.954;2023-10-31T13:37:07;55503.53;;;23.37;46.38
54503;BME280;40411;50.090;21.954;2023-10-31T13:39:34;55116.59;;;23.70;45.16
54503;BME280;40411;50.090;21.954;2023-10-31T13:41:59;55589.34;;;23.35;45.90
54503;BME280;40411;50.090;21.954;2023-10-31T13:44:25;55681.50;;;23.23;46.60
54503;BME280;40411;50.090;21.954;2023-10-31T13:46:51;56235.69;;;22.73;47.58
54503;BME280;40411;50.090;21.954;2023-10-31T13:49:17;56441.28;;;22.49;48.63
54503;BME280;40411;50.090;21.954;2023-10-31T13:51:43;56095.19;;;22.82;47.90
54503;BME280;40411;50.090;21.954;2023-10-31T13:54:09;55271.09;;;23.38;47.01
54503;BME280;40411;50.090;21.954;2023-10-31T13:56:35;55398.44;;;23.35;46.86
54503;BME280;40411;50.090;21.954;2023-10-31T13:59:01;55235.31;;;23.54;46.26
54503;BME280;40411;50.090;21.954;2023-10-31T14:01:26;55335.81;;;23.39;46.95
54503;BME280;40411;50.090;21.954;2023-10-31T14:03:54;54745.03;;;23.82;45.98
54503;BME280;40411;50.090;21.954;2023-10-31T14:06:20;54272.94;;;24.27;44.80
54503;BME280;40411;50.090;21.954;2023-10-31T14:08:46;54301.72;;;24.26;44.62
54503;BME280;40411;50.090;21.954;2023-10-31T14:11:11;53978.50;;;24.48;44.21
54503;BME280;40411;50.090;21.954;2023-10-31T14:13:37;53899.81;;;24.56;43.84
54503;BME280;40411;50.090;21.954;2023-10-31T14:16:04;54916.34;;;23.86;44.89
54503;BME280;40411;50.090;21.954;2023-10-31T14:18:30;54057.28;;;24.44;44.12
54503;BME280;40411;50.090;21.954;2023-10-31T14:20:56;55296.44;;;23.54;45.87
54503;BME280;40411;50.090;21.954;2023-10-31T14:23:22;55113.00;;;23.69;45.98
54503;BME280;40411;50.090;21.954;2023-10-31T14:25:48;55770.91;;;23.22;46.72
54503;BME280;40411;50.090;21.954;2023-10-31T14:28:14;56358.81;;;22.74;47.55
54503;BME280;40411;50.090;21.954;2023-10-31T14:30:40;55670.34;;;23.28;46.77
54503;BME280;40411;50.090;21.954;2023-10-31T14:33:06;55380.63;;;23.48;46.22
54503;BME280;40411;50.090;21.954;2023-10-31T14:35:32;55919.50;;;23.13;46.54
54503;BME280;40411;50.090;21.954;2023-10-31T14:37:58;54691.09;;;24.01;45.54
54503;BME280;40411;50.090;21.954;2023-10-31T14:40:24;54843.03;;;23.99;44.71
54503;BME280;40411;50.090;21.954;2023-10-31T14:42:50;55477.75;;;23.49;46.00
54503;BME280;40411;50.090;21.954;2023-10-31T14:45:15;54998.63;;;23.83;45.59
54503;BME280;40411;50.090;21.954;2023-10-31T14:47:42;55067.13;;;23.79;45.72
54503;BME280;40411;50.090;21.954;2023-10-31T14:50:08;55403.72;;;23.55;45.84
54503;BME280;40411;50.090;21.954;2023-10-31T14:52:34;54783.09;;;23.97;45.20
54503;BME280;40411;50.090;21.954;2023-10-31T14:54:59;54535.25;;;24.23;44.72
54503;BME280;40411;50.090;21.954;2023-10-31T14:57:25;55140.69;;;23.87;45.15
54503;BME280;40411;50.090;21.954;2023-10-31T14:59:51;55290.38;;;23.71;45.26
54503;BME280;40411;50.090;21.954;2023-10-31T15:02:17;54900.59;;;23.98;45.06
54503;BME280;40411;50.090;21.954;2023-10-31T15:04:42;54841.53;;;24.12;44.46
54503;BME280;40411;50.090;21.954;2023-10-31T15:07:09;55941.44;;;23.22;46.21
54503;BME280;40411;50.090;21.954;2023-10-31T15:09:34;55598.53;;;23.53;45.67
54503;BME280;40411;50.090;21.954;2023-10-31T15:12:00;55561.53;;;23.56;45.69
54503;BME280;40411;50.090;21.954;2023-10-31T15:14:26;55163.13;;;23.91;45.05
54503;BME280;40411;50.090;21.954;2023-10-31T15:16:52;56244.41;;;23.00;47.30
54503;BME280;40411;50.090;21.954;2023-10-31T15:19:19;57280.47;;;22.05;50.36
54503;BME280;40411;50.090;21.954;2023-10-31T15:21:45;57710.34;;;21.67;50.62
54503;BME280;40411;50.090;21.954;2023-10-31T15:24:10;56717.44;;;22.55;48.76
54503;BME280;40411;50.090;21.954;2023-10-31T15:26:38;56814.19;;;22.28;51.34
54503;BME280;40411;50.090;21.954;2023-10-31T15:29:05;57184.44;;;21.91;52.11
54503;BME280;40411;50.090;21.954;2023-10-31T15:31:32;56620.16;;;21.95;55.74
54503;BME280;40411;50.090;21.954;2023-10-31T15:33:59;56506.16;;;22.00;55.79
54503;BME280;40411;50.090;21.954;2023-10-31T15:36:25;57808.88;;;20.56;61.95
54503;BME280;40411;50.090;21.954;2023-10-31T15:38:51;57482.91;;;20.52;65.75
54503;BME280;40411;50.090;21.954;2023-10-31T15:41:17;57912.16;;;20.04;68.21
54503;BME280;40411;50.090;21.954;2023-10-31T15:43:45;57676.16;;;20.44;65.27
54503;BME280;40411;50.090;21.954;2023-10-31T15:46:11;57118.63;;;20.81;65.12
54503;BME280;40411;50.090;21.954;2023-10-31T15:48:37;56528.88;;;21.40;63.26
54503;BME280;40411;50.090;21.954;2023-10-31T15:51:03;56561.22;;;21.22;64.25